createdAt,value
2022-08-03T00:01:39.104Z,25.20
2022-08-03T00:04:07.770Z,25.20
2022-08-03T00:06:37.248Z,25.20
2022-08-03T00:09:07.010Z,25.20
2022-08-03T00:11:34.806Z,25.10
2022-08-03T00:14:02.224Z,25.20
2022-08-03T00:16:29.411Z,25.20
2022-08-03T00:18:56.848Z,25.10
2022-08-03T00:21:23.957Z,25.10
2022-08-03T00:23:52.860Z,25.10
2022-08-03T00:26:21.518Z,25.10
2022-08-03T00:28:49.684Z,25.10
2022-08-03T00:31:16.951Z,25.00
2022-08-03T00:33:59.054Z,25.00
2022-08-03T00:36:28.038Z,25.00
2022-08-03T00:38:56.331Z,25.00
2022-08-03T00:41:23.463Z,25.00
2022-08-03T00:43:50.527Z,25.00
2022-08-03T00:46:21.415Z,24.90
2022-08-03T00:48:50.472Z,24.90
2022-08-03T00:51:18.561Z,24.90
2022-08-03T00:53:46.145Z,24.90
2022-08-03T00:56:17.482Z,24.90
2022-08-03T00:58:46.434Z,24.90
2022-08-03T01:01:14.387Z,24.80
2022-08-03T01:03:41.713Z,24.80
2022-08-03T01:06:28.122Z,24.80
2022-08-03T01:09:05.347Z,24.80
2022-08-03T01:12:01.685Z,24.80
2022-08-03T01:14:39.705Z,24.80
2022-08-03T01:17:25.891Z,24.80
2022-08-03T01:20:11.078Z,24.70
2022-08-03T01:22:57.910Z,24.70
2022-08-03T01:25:31.719Z,24.70
2022-08-03T01:28:28.183Z,24.70
2022-08-03T01:30:59.227Z,24.70
2022-08-03T01:33:37.265Z,24.70
2022-08-03T01:36:08.049Z,24.70
2022-08-03T01:38:42.153Z,24.60
2022-08-03T01:41:13.830Z,24.60
2022-08-03T01:44:27.547Z,24.60
2022-08-03T01:46:34.197Z,24.60
2022-08-03T01:49:09.366Z,24.60
2022-08-03T01:51:58.599Z,24.60
2022-08-03T01:54:30.784Z,24.60
2022-08-03T01:56:59.148Z,24.50
2022-08-03T01:59:28.468Z,24.50
2022-08-03T02:02:29.773Z,24.50
2022-08-03T02:04:47.122Z,24.50
2022-08-03T02:07:15.690Z,24.50
2022-08-03T02:09:46.996Z,24.50
2022-08-03T02:12:15.547Z,24.50
2022-08-03T02:14:45.850Z,24.40
2022-08-03T02:17:14.159Z,24.40
2022-08-03T02:19:43.341Z,24.40
2022-08-03T02:22:12.408Z,24.40
2022-08-03T02:24:40.178Z,24.40
2022-08-03T02:27:15.775Z,24.40
2022-08-03T02:29:45.487Z,24.40
2022-08-03T02:32:17.814Z,24.40
2022-08-03T02:34:48.990Z,24.40
2022-08-03T02:37:19.752Z,24.30
2022-08-03T02:39:49.436Z,24.30
2022-08-03T02:42:18.952Z,24.30
2022-08-03T02:44:50.459Z,24.30
2022-08-03T02:47:21.058Z,24.30
2022-08-03T02:49:52.423Z,24.30
2022-08-03T02:52:27.048Z,24.30
2022-08-03T02:54:59.080Z,24.30
2022-08-03T02:57:29.488Z,24.30
2022-08-03T02:59:58.463Z,24.30
2022-08-03T03:02:26.087Z,24.20
2022-08-03T03:05:52.534Z,24.20
2022-08-03T03:07:51.848Z,24.30
2022-08-03T03:10:23.111Z,24.20
2022-08-03T03:12:57.363Z,24.20
2022-08-03T03:15:26.826Z,24.20
2022-08-03T03:17:54.667Z,24.20
2022-08-03T03:20:29.452Z,24.20
2022-08-03T03:23:00.719Z,24.20
2022-08-03T03:25:32.535Z,24.20
2022-08-03T03:28:03.755Z,24.20
2022-08-03T03:30:34.210Z,24.10
2022-08-03T03:33:02.807Z,24.20
2022-08-03T03:35:31.422Z,24.10
2022-08-03T03:38:06.624Z,24.10
2022-08-03T03:40:36.118Z,24.10
2022-08-03T03:43:03.970Z,24.10
2022-08-03T03:45:31.922Z,24.10
2022-08-03T03:48:09.321Z,24.10
2022-08-03T03:50:37.756Z,24.10
2022-08-03T03:53:05.202Z,24.10
2022-08-03T03:55:37.592Z,24.10
2022-08-03T03:58:24.916Z,24.10
2022-08-03T04:00:53.976Z,24.10
2022-08-03T04:03:21.363Z,24.00
2022-08-03T04:06:07.571Z,24.00
2022-08-03T04:08:53.102Z,24.10
2022-08-03T04:11:29.977Z,24.00
2022-08-03T04:14:16.512Z,24.00
2022-08-03T04:16:49.071Z,24.00
2022-08-03T04:19:40.915Z,24.00
2022-08-03T04:22:11.825Z,24.00
2022-08-03T04:24:46.537Z,24.00
2022-08-03T04:27:23.627Z,24.00
2022-08-03T04:29:54.670Z,24.00
2022-08-03T04:32:25.262Z,24.00
2022-08-03T04:34:52.551Z,24.00
2022-08-03T04:37:35.384Z,23.90
2022-08-03T04:40:05.699Z,24.00
2022-08-03T04:42:34.623Z,23.90
2022-08-03T04:45:04.265Z,23.90
2022-08-03T04:47:34.250Z,23.90
2022-08-03T04:50:02.992Z,23.90
2022-08-03T04:52:30.683Z,23.90
2022-08-03T04:54:57.895Z,23.90
2022-08-03T04:57:24.946Z,23.90
2022-08-03T05:00:02.547Z,23.90
2022-08-03T05:02:30.687Z,23.90
2022-08-03T05:04:58.642Z,23.90
2022-08-03T05:07:25.738Z,23.90
2022-08-03T05:10:01.543Z,23.90
2022-08-03T05:12:32.914Z,23.90
2022-08-03T05:15:00.908Z,23.90
2022-08-03T05:17:28.621Z,23.90
2022-08-03T05:19:56.429Z,23.90
2022-08-03T05:22:24.061Z,23.90
2022-08-03T05:24:51.132Z,23.90
2022-08-03T05:27:20.205Z,23.90
2022-08-03T05:29:49.311Z,23.90
2022-08-03T05:32:17.776Z,23.90
2022-08-03T05:34:45.559Z,23.80
2022-08-03T05:37:12.684Z,23.80
2022-08-03T05:39:40.127Z,23.90
2022-08-03T05:42:07.306Z,23.90
2022-08-03T05:44:34.386Z,23.90
2022-08-03T05:47:01.375Z,23.90
2022-08-03T05:49:28.613Z,23.80
2022-08-03T05:52:00.063Z,23.80
2022-08-03T05:54:55.458Z,23.80
2022-08-03T05:57:24.551Z,23.80
2022-08-03T05:59:55.565Z,23.90
2022-08-03T06:02:28.848Z,23.90
2022-08-03T06:04:55.891Z,23.90
2022-08-03T06:07:23.160Z,23.90
2022-08-03T06:10:35.230Z,23.90
2022-08-03T06:12:37.851Z,23.90
2022-08-03T06:15:05.353Z,23.90
2022-08-03T06:17:37.786Z,23.90
2022-08-03T06:20:06.305Z,23.90
2022-08-03T06:22:33.715Z,23.90
2022-08-03T06:25:04.986Z,23.90
2022-08-03T06:27:36.636Z,23.90
2022-08-03T06:30:05.557Z,23.90
2022-08-03T06:32:33.775Z,23.90
2022-08-03T06:35:01.027Z,23.90
2022-08-03T06:37:28.893Z,23.90
2022-08-03T06:39:56.082Z,23.90
2022-08-03T06:42:23.289Z,24.00
2022-08-03T06:44:52.408Z,24.00
2022-08-03T06:47:19.538Z,24.00
2022-08-03T06:50:14.391Z,24.00
2022-08-03T06:52:38.127Z,24.00
2022-08-03T06:55:06.962Z,24.00
2022-08-03T06:57:33.976Z,24.10
2022-08-03T07:00:07.338Z,24.10
2022-08-03T07:02:35.876Z,24.00
2022-08-03T07:05:03.008Z,23.90
2022-08-03T07:07:30.131Z,23.90
2022-08-03T07:09:58.306Z,23.80
2022-08-03T07:12:27.712Z,23.80
2022-08-03T07:15:00.363Z,23.70
2022-08-03T07:17:34.765Z,23.70
2022-08-03T07:20:03.849Z,23.70
2022-08-03T07:22:30.952Z,23.70
2022-08-03T07:24:58.403Z,23.60
2022-08-03T07:27:29.726Z,23.60
2022-08-03T07:29:58.516Z,23.60
2022-08-03T07:32:26.082Z,23.60
2022-08-03T07:34:58.340Z,23.60
2022-08-03T07:37:27.529Z,23.60
2022-08-03T07:39:55.680Z,23.60
2022-08-03T07:42:23.974Z,23.60
2022-08-03T07:44:50.949Z,23.70
2022-08-03T07:47:24.598Z,23.70
2022-08-03T07:49:52.608Z,23.70
2022-08-03T07:52:46.226Z,23.60
2022-08-03T07:55:13.267Z,23.60
2022-08-03T07:57:40.330Z,23.60
2022-08-03T08:00:16.724Z,23.50
2022-08-03T08:02:44.673Z,23.60
2022-08-03T08:05:12.634Z,23.60
2022-08-03T08:07:40.726Z,23.60
2022-08-03T08:10:10.254Z,23.60
2022-08-03T08:12:38.817Z,23.70
2022-08-03T08:15:07.238Z,23.70
2022-08-03T08:17:48.559Z,23.70
2022-08-03T08:20:27.963Z,23.70
2022-08-03T08:22:58.275Z,23.70
2022-08-03T08:25:28.991Z,23.70
2022-08-03T08:28:30.318Z,23.70
2022-08-03T08:30:49.564Z,23.80
2022-08-03T08:33:23.443Z,23.80
2022-08-03T08:35:53.174Z,23.80
2022-08-03T08:38:20.804Z,23.80
2022-08-03T08:40:49.299Z,23.80
2022-08-03T08:43:19.036Z,23.80
2022-08-03T08:45:52.113Z,23.90
2022-08-03T08:48:24.633Z,23.90
2022-08-03T08:50:56.512Z,23.90
2022-08-03T08:53:29.429Z,24.00
2022-08-03T08:56:01.059Z,23.90
2022-08-03T08:58:42.021Z,24.00
2022-08-03T09:01:09.339Z,24.00
2022-08-03T09:03:36.671Z,24.10
2022-08-03T09:06:04.765Z,24.10
2022-08-03T09:08:33.185Z,24.10
2022-08-03T09:11:00.717Z,24.10
2022-08-03T09:13:29.244Z,24.10
2022-08-03T09:16:19.390Z,24.10
2022-08-03T09:18:50.702Z,24.20
2022-08-03T09:21:31.774Z,24.20
2022-08-03T09:24:03.860Z,24.20
2022-08-03T09:26:34.779Z,24.20
2022-08-03T09:29:13.446Z,24.30
2022-08-03T09:31:45.433Z,24.40
2022-08-03T09:34:17.952Z,24.40
2022-08-03T09:36:49.764Z,24.40
2022-08-03T09:39:40.249Z,24.50
2022-08-03T09:42:18.731Z,24.50
2022-08-03T09:44:52.182Z,24.60
2022-08-03T09:47:29.051Z,24.60
2022-08-03T09:50:04.795Z,24.60
2022-08-03T09:52:49.304Z,24.70
2022-08-03T09:56:05.213Z,24.70
2022-08-03T09:58:10.520Z,24.80
2022-08-03T10:00:53.037Z,24.80
2022-08-03T10:03:20.220Z,24.80
2022-08-03T10:05:47.428Z,24.90
2022-08-03T10:08:19.958Z,25.00
2022-08-03T10:10:49.731Z,25.10
2022-08-03T10:13:19.190Z,25.10
2022-08-03T10:16:21.152Z,25.20
2022-08-03T10:18:34.167Z,25.30
2022-08-03T10:21:08.044Z,25.40
2022-08-03T10:23:38.016Z,25.40
2022-08-03T10:26:08.280Z,25.40
2022-08-03T10:28:44.776Z,25.50
2022-08-03T10:31:14.170Z,25.50
2022-08-03T10:33:50.806Z,25.50
2022-08-03T10:36:23.979Z,25.50
2022-08-03T10:38:53.805Z,25.60
2022-08-03T10:41:22.690Z,25.60
2022-08-03T10:44:01.886Z,25.70
2022-08-03T10:46:29.443Z,25.80
2022-08-03T10:48:57.595Z,25.80
2022-08-03T10:51:25.777Z,25.90
2022-08-03T10:53:55.017Z,26.00
2022-08-03T10:56:54.554Z,26.00
2022-08-03T10:59:46.614Z,26.00
2022-08-03T11:02:16.635Z,26.10
2022-08-03T11:04:45.296Z,26.10
2022-08-03T11:07:18.920Z,26.10
2022-08-03T11:09:52.849Z,26.20
2022-08-03T11:12:31.342Z,26.20
2022-08-03T11:15:06.747Z,26.20
2022-08-03T11:17:46.421Z,26.20
2022-08-03T11:20:45.046Z,26.20
2022-08-03T11:23:12.600Z,26.20
2022-08-03T11:26:09.890Z,26.20
2022-08-03T11:28:39.012Z,26.20
2022-08-03T11:31:48.848Z,26.40
2022-08-03T11:34:16.451Z,26.40
2022-08-03T11:37:22.338Z,26.50
2022-08-03T11:39:51.809Z,26.50
2022-08-03T11:42:25.589Z,26.60
2022-08-03T11:44:58.406Z,26.70
2022-08-03T11:47:27.444Z,26.90
2022-08-03T11:49:59.064Z,27.00
2022-08-03T11:52:28.765Z,27.20
2022-08-03T11:54:56.883Z,27.30
2022-08-03T11:59:02.642Z,27.30
2022-08-03T12:00:32.164Z,27.30
2022-08-03T12:03:14.219Z,27.40
2022-08-03T12:05:51.226Z,27.40
2022-08-03T12:08:30.153Z,27.40
2022-08-03T12:11:00.133Z,27.50
2022-08-03T12:14:32.972Z,27.50
2022-08-03T12:16:19.650Z,27.50
2022-08-03T12:19:05.027Z,27.60
2022-08-03T12:21:32.778Z,27.70
2022-08-03T12:24:05.449Z,27.70
2022-08-03T12:26:46.307Z,27.70
2022-08-03T12:29:26.407Z,27.70
2022-08-03T12:31:53.390Z,27.80
2022-08-03T12:34:20.414Z,27.80
2022-08-03T12:36:56.626Z,27.90
2022-08-03T12:39:26.534Z,27.90
2022-08-03T12:41:54.760Z,28.30
2022-08-03T12:44:32.932Z,28.60
2022-08-03T12:47:00.879Z,28.70
2022-08-03T12:49:30.453Z,28.70
2022-08-03T12:52:03.951Z,29.00
2022-08-03T12:54:36.043Z,29.50
2022-08-03T12:57:15.952Z,30.00
2022-08-03T12:59:53.057Z,30.30
2022-08-03T13:02:23.612Z,30.30
2022-08-03T13:04:52.418Z,30.30
2022-08-03T13:07:20.223Z,30.50
2022-08-03T13:09:49.707Z,30.50
2022-08-03T13:12:24.938Z,30.50
2022-08-03T13:15:01.865Z,30.40
2022-08-03T13:17:28.920Z,30.30
2022-08-03T13:19:56.535Z,30.20
2022-08-03T13:22:26.135Z,30.20
2022-08-03T13:24:58.315Z,30.10
2022-08-03T13:28:03.447Z,30.10
2022-08-03T13:30:14.078Z,30.30
2022-08-03T13:32:50.605Z,30.30
2022-08-03T13:35:17.736Z,30.30
2022-08-03T13:37:47.833Z,30.30
2022-08-03T13:40:16.130Z,30.20
2022-08-03T13:42:45.173Z,30.00
2022-08-03T13:45:12.701Z,30.00
2022-08-03T13:47:39.720Z,30.00
2022-08-03T13:50:07.099Z,30.00
2022-08-03T13:52:35.810Z,30.20
2022-08-03T13:55:05.207Z,30.30
2022-08-03T13:58:05.036Z,30.30
2022-08-03T14:00:26.960Z,30.50
2022-08-03T14:03:13.211Z,30.60
2022-08-03T14:05:41.555Z,30.50
2022-08-03T14:08:09.083Z,30.50
2022-08-03T14:10:44.988Z,30.60
2022-08-03T14:13:17.503Z,30.70
2022-08-03T14:15:50.218Z,30.70
2022-08-03T14:18:27.886Z,30.70
2022-08-03T14:21:00.644Z,30.60
2022-08-03T14:23:32.593Z,30.60
2022-08-03T14:26:00.097Z,30.50
2022-08-03T14:28:27.451Z,30.40
2022-08-03T14:30:56.140Z,30.30
2022-08-03T14:33:23.692Z,30.20
2022-08-03T14:35:51.368Z,30.20
2022-08-03T14:38:19.086Z,30.20
2022-08-03T14:40:46.361Z,30.20
2022-08-03T14:43:13.454Z,30.20
2022-08-03T14:45:40.930Z,30.30
2022-08-03T14:50:24.384Z,30.30
2022-08-03T14:50:55.493Z,30.30
2022-08-03T14:53:22.738Z,30.30
2022-08-03T14:55:51.953Z,30.20
2022-08-03T14:58:23.219Z,30.10
2022-08-03T15:00:55.119Z,30.00
2022-08-03T15:03:24.742Z,30.00
2022-08-03T15:05:53.569Z,29.90
2022-08-03T15:08:21.298Z,29.90
2022-08-03T15:10:49.455Z,29.80
2022-08-03T15:13:17.946Z,29.80
2022-08-03T15:15:45.436Z,29.70
2022-08-03T15:18:12.558Z,29.80
2022-08-03T15:20:45.043Z,29.70
2022-08-03T15:23:14.912Z,29.70
2022-08-03T15:26:28.962Z,29.70
2022-08-03T15:28:30.386Z,29.70
2022-08-03T15:30:57.451Z,29.60
2022-08-03T15:33:24.677Z,29.70
2022-08-03T15:35:53.053Z,29.70
2022-08-03T15:38:25.956Z,29.70
2022-08-03T15:40:57.181Z,29.60
2022-08-03T15:43:24.508Z,29.60
2022-08-03T15:46:19.519Z,29.70
2022-08-03T15:48:40.532Z,29.60
2022-08-03T15:51:08.340Z,29.50
2022-08-03T15:53:35.628Z,29.50
2022-08-03T15:56:09.427Z,29.50
2022-08-03T15:59:04.043Z,29.50
2022-08-03T16:01:26.353Z,29.50
2022-08-03T16:03:53.418Z,29.50
2022-08-03T16:06:34.861Z,29.50
2022-08-03T16:09:23.712Z,29.40
2022-08-03T16:11:54.371Z,29.50
2022-08-03T16:14:32.709Z,29.50
2022-08-03T16:17:03.351Z,29.50
2022-08-03T16:19:30.467Z,29.50
2022-08-03T16:21:57.507Z,29.40
2022-08-03T16:24:27.793Z,29.50
2022-08-03T16:26:55.856Z,29.50
2022-08-03T16:29:23.851Z,29.50
2022-08-03T16:31:52.129Z,29.50
2022-08-03T16:34:19.980Z,29.50
2022-08-03T16:36:47.233Z,29.50
2022-08-03T16:39:15.504Z,29.50
2022-08-03T16:41:55.011Z,29.50
2022-08-03T16:44:31.269Z,29.40
2022-08-03T16:46:59.493Z,29.40
2022-08-03T16:49:54.266Z,29.30
2022-08-03T16:52:14.052Z,29.30
2022-08-03T16:54:44.450Z,29.30
2022-08-03T16:57:29.925Z,29.30
2022-08-03T17:00:07.944Z,29.30
2022-08-03T17:02:36.233Z,29.30
2022-08-03T17:05:03.858Z,29.30
2022-08-03T17:07:30.849Z,29.30
2022-08-03T17:09:58.171Z,29.30
2022-08-03T17:12:26.694Z,29.20
2022-08-03T17:14:54.491Z,29.10
2022-08-03T17:17:47.543Z,29.00
2022-08-03T17:20:29.701Z,29.00
2022-08-03T17:23:33.877Z,28.90
2022-08-03T17:26:02.110Z,28.80
2022-08-03T17:28:48.573Z,28.80
2022-08-03T17:31:23.507Z,28.70
2022-08-03T17:34:01.249Z,28.70
2022-08-03T17:39:17.931Z,28.70
2022-08-03T17:41:49.963Z,28.70
2022-08-03T17:44:31.124Z,28.70
2022-08-03T17:47:06.656Z,28.60
2022-08-03T17:49:39.958Z,28.50
2022-08-03T17:52:33.285Z,28.60
2022-08-03T17:55:55.443Z,28.50
2022-08-03T17:58:55.065Z,28.50
2022-08-03T18:01:57.429Z,28.50
2022-08-03T18:04:41.297Z,28.40
2022-08-03T18:07:12.425Z,28.40
2022-08-03T18:10:04.423Z,28.40
2022-08-03T18:12:40.539Z,28.40
2022-08-03T18:15:21.344Z,28.30
2022-08-03T18:17:55.669Z,28.30
2022-08-03T18:20:33.055Z,28.20
2022-08-03T18:23:06.871Z,28.20
2022-08-03T18:25:42.703Z,28.20
2022-08-03T18:28:14.585Z,28.10
2022-08-03T18:30:53.239Z,28.10
2022-08-03T18:34:19.775Z,28.00
2022-08-03T18:36:21.783Z,28.10
2022-08-03T18:38:53.919Z,28.00
2022-08-03T18:41:32.200Z,27.90
2022-08-03T18:44:09.019Z,27.90
2022-08-03T18:47:15.933Z,27.90
2022-08-03T18:50:22.824Z,27.80
2022-08-03T18:53:16.442Z,27.80
2022-08-03T18:56:16.286Z,27.70
2022-08-03T18:59:30.046Z,27.70
2022-08-03T19:02:09.233Z,27.70
2022-08-03T19:04:46.726Z,27.70
2022-08-03T19:07:22.241Z,27.70
2022-08-03T19:09:55.671Z,27.70
2022-08-03T19:12:42.194Z,27.70
2022-08-03T19:15:15.589Z,27.60
2022-08-03T19:17:53.729Z,27.60
2022-08-03T19:20:26.225Z,27.60
2022-08-03T19:22:55.905Z,27.50
2022-08-03T19:25:34.246Z,27.50
2022-08-03T19:28:06.213Z,27.50
2022-08-03T19:30:40.381Z,27.50
2022-08-03T19:33:13.066Z,27.40
2022-08-03T19:35:51.804Z,27.40
2022-08-03T19:38:28.374Z,27.40
2022-08-03T19:41:00.497Z,27.40
2022-08-03T19:43:49.380Z,27.30
2022-08-03T19:46:21.882Z,27.30
2022-08-03T19:48:59.506Z,27.30
2022-08-03T19:52:03.014Z,27.30
2022-08-03T19:54:25.337Z,27.20
2022-08-03T19:56:58.421Z,27.20
2022-08-03T19:59:26.494Z,27.20
2022-08-03T20:01:54.314Z,27.30
2022-08-03T20:04:21.888Z,27.30
2022-08-03T20:06:50.133Z,27.20
2022-08-03T20:09:18.748Z,27.30
2022-08-03T20:11:47.884Z,27.30
2022-08-03T20:14:20.567Z,27.30
2022-08-03T20:16:53.724Z,27.30
2022-08-03T20:19:21.550Z,27.30
2022-08-03T20:21:51.440Z,27.30
2022-08-03T20:24:27.008Z,27.30
2022-08-03T20:26:57.721Z,27.30
2022-08-03T20:32:23.882Z,27.30
2022-08-03T20:34:52.975Z,27.20
2022-08-03T20:37:20.371Z,27.20
2022-08-03T20:39:49.789Z,27.20
2022-08-03T20:42:21.506Z,27.20
2022-08-03T20:45:05.299Z,27.20
2022-08-03T20:47:41.618Z,27.10
2022-08-03T20:50:19.191Z,27.00
2022-08-03T20:52:49.937Z,26.90
2022-08-03T20:55:47.676Z,26.90
2022-08-03T20:58:09.212Z,26.80
2022-08-03T21:00:36.399Z,26.80
2022-08-03T21:03:03.942Z,26.80
2022-08-03T21:05:51.074Z,26.70
2022-08-03T21:08:22.444Z,26.70
2022-08-03T21:10:52.370Z,26.70
2022-08-03T21:13:12.044Z,27.30
2022-08-03T21:13:41.386Z,26.60
2022-08-03T21:16:14.733Z,26.60
2022-08-03T21:18:54.482Z,26.60
2022-08-03T21:21:23.432Z,26.60
2022-08-03T21:23:52.955Z,26.60
2022-08-03T21:26:25.553Z,26.50
2022-08-03T21:28:56.061Z,26.50
2022-08-03T21:31:25.267Z,26.50
2022-08-03T21:33:55.652Z,26.50
2022-08-03T21:36:22.973Z,26.40
2022-08-03T21:38:56.637Z,26.40
2022-08-03T21:41:27.036Z,26.30
2022-08-03T21:43:54.245Z,26.40
2022-08-03T21:46:22.028Z,26.30
2022-08-03T21:48:56.588Z,26.30
2022-08-03T21:51:43.825Z,26.30
2022-08-03T21:54:12.092Z,26.30
2022-08-03T21:56:45.377Z,26.30
2022-08-03T21:59:20.257Z,26.40
2022-08-03T22:01:51.291Z,26.40
2022-08-03T22:04:50.178Z,26.40
2022-08-03T22:07:09.816Z,26.40
2022-08-03T22:09:36.986Z,26.40
2022-08-03T22:12:04.986Z,26.40
2022-08-03T22:14:33.181Z,26.40
2022-08-03T22:17:06.339Z,26.40
2022-08-03T22:19:34.598Z,26.40
2022-08-03T22:22:06.135Z,26.40
2022-08-03T22:24:36.235Z,26.40
2022-08-03T22:27:23.241Z,26.40
2022-08-03T22:29:51.430Z,26.30
2022-08-03T22:32:18.484Z,26.30
2022-08-03T22:34:47.485Z,26.30
2022-08-03T22:37:17.868Z,26.30
2022-08-03T22:39:45.731Z,26.30
2022-08-03T22:42:13.145Z,26.30
2022-08-03T22:44:40.455Z,26.30
2022-08-03T22:47:09.597Z,26.30
2022-08-03T22:49:37.954Z,26.30
2022-08-03T22:52:07.458Z,26.30
2022-08-03T22:54:35.945Z,26.30
2022-08-03T22:57:04.539Z,26.30
2022-08-03T22:59:40.885Z,26.30
2022-08-03T23:02:20.113Z,26.20
2022-08-03T23:04:52.446Z,26.20
2022-08-03T23:07:30.260Z,26.20
2022-08-03T23:09:58.421Z,26.20
2022-08-03T23:12:26.957Z,26.20
2022-08-03T23:15:01.170Z,26.20
2022-08-03T23:17:30.875Z,26.10
2022-08-03T23:20:08.757Z,26.10
2022-08-03T23:22:42.864Z,26.10
2022-08-03T23:25:10.965Z,26.10
2022-08-03T23:27:42.452Z,26.10
2022-08-03T23:30:12.230Z,26.10
2022-08-03T23:32:43.005Z,26.10
2022-08-03T23:36:28.725Z,26.10
2022-08-03T23:38:22.139Z,26.00
2022-08-03T23:40:51.390Z,26.00
2022-08-03T23:43:44.729Z,26.00
2022-08-03T23:46:09.194Z,26.00
2022-08-03T23:48:37.510Z,26.00
2022-08-03T23:51:13.057Z,26.00
2022-08-03T23:54:00.134Z,26.00
2022-08-03T23:56:48.347Z,26.00
2022-08-03T23:59:35.896Z,26.00
